createdAt,value
2022-11-16T18:45:54.499Z,100176.63
2022-11-16T18:48:58.714Z,100176.34
2022-11-16T18:52:02.263Z,100178.63
2022-11-16T18:55:07.019Z,100176.84
2022-11-16T18:58:23.075Z,100169.97
2022-11-16T19:01:35.557Z,100179.66
2022-11-16T19:04:40.198Z,100164.19
2022-11-16T19:07:43.763Z,100165.50
2022-11-16T19:10:47.303Z,100163.81
2022-11-16T19:13:54.270Z,100161.91
2022-11-16T19:16:59.322Z,100166.19
2022-11-16T19:20:02.904Z,100155.75
2022-11-16T19:23:06.563Z,100167.47
2022-11-16T19:26:12.245Z,100162.41
2022-11-16T19:29:15.841Z,100154.06
2022-11-16T19:32:20.877Z,100153.69
2022-11-16T19:35:24.439Z,100152.78
2022-11-16T19:38:28.017Z,100161.59
2022-11-16T19:41:31.599Z,100157.03
2022-11-16T19:44:35.150Z,100156.59
2022-11-16T19:47:40.277Z,100161.59
2022-11-16T19:50:43.927Z,100161.59
2022-11-16T19:53:48.026Z,100169.53
2022-11-16T19:56:55.057Z,100167.81
2022-11-16T19:59:58.963Z,100182.53
2022-11-16T20:03:03.884Z,100173.31
2022-11-16T20:06:10.079Z,100169.00
2022-11-16T20:09:13.855Z,100170.88
2022-11-16T20:12:17.385Z,100169.00
2022-11-16T20:15:22.641Z,100164.53
2022-11-16T20:18:30.101Z,100156.34
2022-11-16T20:21:35.355Z,100154.59
2022-11-16T20:24:38.937Z,100155.31
2022-11-16T20:27:42.542Z,100150.66
2022-11-16T20:30:47.296Z,100152.44
2022-11-16T20:33:53.605Z,100155.16
2022-11-16T20:36:57.187Z,100158.03
2022-11-16T20:40:00.714Z,100151.50
2022-11-16T20:43:04.374Z,100145.72
2022-11-16T20:46:08.534Z,100144.78
2022-11-16T20:49:14.135Z,100142.53
2022-11-16T20:52:17.738Z,100145.59
2022-11-16T20:55:21.329Z,100152.00
2022-11-16T20:58:25.154Z,100150.47
2022-11-16T21:01:32.336Z,100163.28
2022-11-16T21:04:37.335Z,100157.25
2022-11-16T21:07:41.755Z,100142.31
2022-11-16T21:10:46.361Z,100140.94
2022-11-16T21:14:07.571Z,100152.47
2022-11-16T21:17:11.156Z,100152.06
2022-11-16T21:20:31.744Z,100143.31
2022-11-16T21:23:37.152Z,100135.03
2022-11-16T21:26:41.042Z,100149.91
2022-11-16T21:29:44.596Z,100160.66
2022-11-16T21:32:48.210Z,100147.31
2022-11-16T21:35:54.453Z,100140.19
2022-11-16T21:38:59.078Z,100146.56
2022-11-16T21:42:02.739Z,100136.47
2022-11-16T21:45:06.880Z,100136.94
2022-11-16T21:48:10.746Z,100135.44
2022-11-16T21:51:17.499Z,100138.78
2022-11-16T21:54:21.160Z,100123.53
2022-11-16T21:57:24.887Z,100136.06
2022-11-16T22:00:29.506Z,100128.91
2022-11-16T22:03:34.040Z,100127.97
2022-11-16T22:06:56.650Z,100136.06
2022-11-16T22:10:00.546Z,100127.28
2022-11-16T22:13:04.385Z,100124.00
